createdAt,value
2022-09-26T00:01:40.782Z,10.07
2022-09-26T00:04:43.337Z,11.00
2022-09-26T00:07:45.934Z,9.70
2022-09-26T00:10:57.719Z,9.65
2022-09-26T00:14:04.205Z,9.43
2022-09-26T00:17:06.801Z,11.25
2022-09-26T00:20:09.590Z,9.90
2022-09-26T00:23:11.941Z,9.37
2022-09-26T00:26:15.952Z,10.27
2022-09-26T00:29:18.264Z,10.68
2022-09-26T00:32:21.723Z,10.45
2022-09-26T00:35:25.090Z,10.73
2022-09-26T00:38:27.579Z,10.50
2022-09-26T00:41:29.989Z,11.35
2022-09-26T00:44:42.815Z,9.88
2022-09-26T00:47:59.683Z,9.40
2022-09-26T00:51:02.940Z,9.85
2022-09-26T00:54:06.921Z,9.17
2022-09-26T00:57:23.815Z,9.18
2022-09-26T01:00:27.305Z,9.35
2022-09-26T01:03:31.678Z,9.50
2022-09-26T01:06:34.104Z,9.63
2022-09-26T01:09:37.894Z,9.30
2022-09-26T01:12:40.360Z,9.73
2022-09-26T01:15:42.751Z,9.02
2022-09-26T01:18:47.908Z,9.43
2022-09-26T01:22:25.449Z,8.43
2022-09-26T01:25:57.295Z,9.03
2022-09-26T01:29:14.839Z,8.52
2022-09-26T01:32:50.914Z,8.57
2022-09-26T01:36:02.019Z,8.30
2022-09-26T01:39:16.351Z,7.95
2022-09-26T01:42:24.616Z,7.63
2022-09-26T01:45:37.889Z,7.88
2022-09-26T01:48:48.384Z,6.72
2022-09-26T01:51:53.465Z,7.40
2022-09-26T01:55:16.021Z,7.18
2022-09-26T01:58:25.655Z,7.00
2022-09-26T02:01:31.270Z,6.82
2022-09-26T02:04:38.735Z,6.30
2022-09-26T02:08:04.047Z,6.35
2022-09-26T02:11:12.792Z,7.22
2022-09-26T02:14:23.830Z,6.13
2022-09-26T02:17:33.546Z,6.78
2022-09-26T02:20:38.029Z,6.53
2022-09-26T02:23:40.997Z,6.68
2022-09-26T02:26:43.970Z,6.53
2022-09-26T02:29:46.295Z,6.60
2022-09-26T02:32:50.875Z,6.25
2022-09-26T02:35:56.340Z,6.78
2022-09-26T02:39:02.725Z,6.90
2022-09-26T02:42:37.027Z,7.15
2022-09-26T02:45:45.579Z,7.30
2022-09-26T02:48:48.305Z,6.80
2022-09-26T02:52:19.141Z,7.30
2022-09-26T02:55:24.715Z,7.40
2022-09-26T02:58:55.326Z,6.95
2022-09-26T03:02:03.314Z,6.50
2022-09-26T03:05:13.191Z,6.63
2022-09-26T03:08:23.198Z,7.10
2022-09-26T03:11:29.105Z,7.35
2022-09-26T03:14:34.310Z,7.88
2022-09-26T03:17:40.046Z,7.97
2022-09-26T03:20:42.600Z,7.70
2022-09-26T03:23:45.414Z,7.50
2022-09-26T03:26:48.084Z,7.30
2022-09-26T03:29:50.629Z,7.72
2022-09-26T03:32:57.421Z,6.97
2022-09-26T03:36:04.777Z,7.32
2022-09-26T03:39:07.273Z,7.78
2022-09-26T03:42:24.799Z,7.82
2022-09-26T03:45:29.782Z,6.95
2022-09-26T03:48:40.848Z,8.00
2022-09-26T03:51:44.281Z,8.80
2022-09-26T03:54:46.770Z,8.35
2022-09-26T03:57:50.905Z,8.13
2022-09-26T04:01:16.088Z,7.75
2022-09-26T04:04:18.456Z,7.13
2022-09-26T04:07:22.100Z,7.15
2022-09-26T04:10:24.509Z,7.57
2022-09-26T04:13:50.045Z,8.30
2022-09-26T04:16:50.208Z,7.60
2022-09-26T04:20:02.179Z,7.90
2022-09-26T04:23:04.805Z,7.53
2022-09-26T04:26:10.002Z,8.65
2022-09-26T04:29:13.398Z,8.88
2022-09-26T04:32:27.821Z,8.68
2022-09-26T04:35:48.925Z,7.40
2022-09-26T04:38:51.398Z,9.18
2022-09-26T04:41:55.240Z,8.35
2022-09-26T04:44:57.663Z,9.63
2022-09-26T04:48:07.725Z,9.70
2022-09-26T04:51:20.839Z,10.13
2022-09-26T04:54:26.316Z,10.63
2022-09-26T04:57:29.610Z,11.65
2022-09-26T05:00:32.326Z,9.95
2022-09-26T05:03:38.924Z,9.82
2022-09-26T05:06:41.475Z,10.93
2022-09-26T05:09:50.170Z,11.63
2022-09-26T05:12:54.927Z,15.38
2022-09-26T05:16:01.740Z,14.45
2022-09-26T05:19:08.724Z,14.10
2022-09-26T05:22:15.842Z,14.00
2022-09-26T05:25:36.865Z,26.90
2022-09-26T05:28:39.262Z,25.48
2022-09-26T05:31:43.594Z,16.65
2022-09-26T05:34:47.079Z,15.55
2022-09-26T05:38:02.635Z,14.43
2022-09-26T05:41:06.466Z,15.07
2022-09-26T05:44:09.889Z,16.40
2022-09-26T05:47:13.091Z,17.45
2022-09-26T05:50:16.095Z,17.52
2022-09-26T05:53:19.786Z,20.63
2022-09-26T05:56:23.816Z,17.58
2022-09-26T05:59:39.894Z,17.85
2022-09-26T06:03:05.670Z,19.38
2022-09-26T06:06:20.257Z,20.17
2022-09-26T06:09:23.206Z,19.13
2022-09-26T06:12:50.121Z,20.95
2022-09-26T06:15:54.569Z,20.27
2022-09-26T06:18:57.016Z,21.20
2022-09-26T06:21:59.400Z,22.15
2022-09-26T06:25:01.746Z,23.43
2022-09-26T06:28:04.139Z,23.92
2022-09-26T06:31:14.987Z,23.60
2022-09-26T06:34:37.831Z,23.42
2022-09-26T06:37:59.496Z,19.10
2022-09-26T06:41:02.270Z,18.40
2022-09-26T06:44:04.688Z,17.27
2022-09-26T06:47:23.369Z,17.00
2022-09-26T06:50:32.287Z,16.25
2022-09-26T06:53:35.426Z,18.55
2022-09-26T06:56:38.141Z,16.40
2022-09-26T06:59:40.882Z,15.45
2022-09-26T07:02:56.639Z,15.40
2022-09-26T07:06:17.993Z,14.75
2022-09-26T07:09:20.490Z,15.00
2022-09-26T07:12:31.666Z,13.80
2022-09-26T07:15:36.066Z,14.02
2022-09-26T07:18:58.680Z,14.98
2022-09-26T07:22:29.872Z,15.05
2022-09-26T07:25:33.374Z,14.75
2022-09-26T07:28:38.374Z,12.10
2022-09-26T07:31:40.780Z,15.52
2022-09-26T07:34:50.023Z,16.10
2022-09-26T07:37:52.966Z,15.60
2022-09-26T07:40:55.647Z,15.07
2022-09-26T07:47:40.723Z,13.82
2022-09-26T07:50:58.768Z,13.55
2022-09-26T07:54:12.187Z,12.77
2022-09-26T07:57:35.406Z,14.60
2022-09-26T08:00:51.355Z,11.57
2022-09-26T08:04:29.707Z,11.40
2022-09-26T08:07:33.644Z,10.00
2022-09-26T08:10:45.046Z,10.77
2022-09-26T08:14:07.526Z,10.48
2022-09-26T08:17:23.603Z,9.80
2022-09-26T08:20:31.319Z,9.85
2022-09-26T08:23:35.484Z,9.82
2022-09-26T08:26:56.801Z,9.45
2022-09-26T08:30:05.472Z,10.27
2022-09-26T08:33:11.538Z,9.53
2022-09-26T08:36:18.320Z,9.15
2022-09-26T08:39:53.353Z,9.10
2022-09-26T08:43:51.181Z,9.73
2022-09-26T08:47:04.573Z,10.20
2022-09-26T08:50:44.896Z,8.40
2022-09-26T08:53:55.478Z,7.65
2022-09-26T08:57:04.295Z,9.32
2022-09-26T09:00:19.287Z,8.02
2022-09-26T09:03:34.320Z,6.90
2022-09-26T09:06:38.642Z,6.60
2022-09-26T09:09:41.093Z,6.80
2022-09-26T09:13:14.536Z,7.05
2022-09-26T09:16:32.461Z,6.40
2022-09-26T09:20:33.853Z,6.60
2022-09-26T09:24:15.805Z,6.07
2022-09-26T09:30:57.042Z,6.22
2022-09-26T09:34:38.380Z,4.65
2022-09-26T09:38:28.804Z,4.47
2022-09-26T09:41:50.599Z,3.43
2022-09-26T09:45:00.560Z,3.60
2022-09-26T09:48:04.507Z,3.55
2022-09-26T09:51:20.264Z,3.60
2022-09-26T09:54:38.197Z,3.78
2022-09-26T09:57:46.343Z,3.30
2022-09-26T10:01:17.443Z,3.30
2022-09-26T10:04:23.247Z,3.33
2022-09-26T10:07:26.840Z,3.30
2022-09-26T10:11:12.915Z,3.42
2022-09-26T10:14:46.127Z,2.90
2022-09-26T10:18:26.134Z,2.67
2022-09-26T10:21:48.658Z,2.83
2022-09-26T10:24:53.201Z,2.42
2022-09-26T10:27:58.139Z,2.70
2022-09-26T10:31:10.760Z,2.57
2022-09-26T10:34:40.228Z,3.00
2022-09-26T10:37:43.748Z,3.10
2022-09-26T10:40:55.640Z,3.15
2022-09-26T10:43:59.412Z,3.00
2022-09-26T10:47:40.746Z,2.90
2022-09-26T10:51:17.357Z,3.05
2022-09-26T10:54:41.869Z,2.80
2022-09-26T10:57:49.317Z,3.00
2022-09-26T11:00:54.443Z,2.75
2022-09-26T11:04:14.866Z,2.40
2022-09-26T11:07:52.295Z,2.70
2022-09-26T11:11:17.194Z,3.13
2022-09-26T11:14:29.196Z,2.63
2022-09-26T11:17:55.517Z,1.88
2022-09-26T11:21:23.151Z,1.80
2022-09-26T11:24:37.245Z,1.90
2022-09-26T11:27:46.086Z,2.00
2022-09-26T11:30:58.832Z,2.08
2022-09-26T11:34:07.667Z,1.95
2022-09-26T11:37:50.768Z,1.97
2022-09-26T11:41:38.496Z,2.80
2022-09-26T11:44:56.849Z,2.58
2022-09-26T11:48:55.638Z,2.80
2022-09-26T11:52:58.705Z,2.70
2022-09-26T11:56:19.401Z,2.97
2022-09-26T11:59:45.500Z,3.30
2022-09-26T12:03:13.987Z,3.03
2022-09-26T12:06:35.057Z,3.00
2022-09-26T12:09:54.693Z,2.47
2022-09-26T12:13:16.418Z,2.73
2022-09-26T12:16:55.537Z,2.30
2022-09-26T12:20:20.726Z,2.85
2022-09-26T12:23:45.867Z,2.63
2022-09-26T12:27:11.738Z,3.20
2022-09-26T12:30:15.740Z,3.00
2022-09-26T12:33:47.228Z,2.42
2022-09-26T12:37:15.431Z,2.30
2022-09-26T12:40:49.460Z,2.05
2022-09-26T12:44:07.792Z,2.30
2022-09-26T12:47:10.180Z,2.33
2022-09-26T12:50:31.300Z,2.10
2022-09-26T12:53:33.848Z,2.10
2022-09-26T12:56:54.851Z,2.20
2022-09-26T13:00:11.015Z,2.58
2022-09-26T13:03:47.338Z,2.30
2022-09-26T13:07:46.886Z,2.10
2022-09-26T13:11:01.590Z,2.40
2022-09-26T13:14:19.532Z,2.30
2022-09-26T13:17:28.139Z,1.90
2022-09-26T13:21:02.958Z,1.90
2022-09-26T13:24:14.029Z,1.98
2022-09-26T13:27:22.192Z,1.95
2022-09-26T13:30:29.439Z,1.35
2022-09-26T13:33:53.115Z,1.40
2022-09-26T13:36:59.100Z,1.23
2022-09-26T13:40:34.220Z,1.30
2022-09-26T13:43:43.871Z,3.40
2022-09-26T13:46:55.795Z,1.90
2022-09-26T13:50:23.644Z,2.13
2022-09-26T13:53:34.673Z,1.90
2022-09-26T13:56:37.013Z,1.95
2022-09-26T13:59:54.202Z,1.90
2022-09-26T14:03:09.524Z,1.77
2022-09-26T14:06:26.218Z,1.90
2022-09-26T14:09:55.604Z,1.60
2022-09-26T14:13:01.487Z,2.13
2022-09-26T14:16:28.665Z,1.65
2022-09-26T14:19:39.430Z,1.70
2022-09-26T14:22:51.291Z,1.70
2022-09-26T14:25:56.629Z,2.30
2022-09-26T14:29:29.879Z,2.00
2022-09-26T14:32:39.185Z,1.92
2022-09-26T14:35:43.186Z,2.20
2022-09-26T14:38:48.419Z,2.05
2022-09-26T14:41:50.914Z,1.87
2022-09-26T14:45:07.019Z,1.90
2022-09-26T14:48:26.836Z,2.10
2022-09-26T14:51:49.172Z,2.33
2022-09-26T14:54:56.470Z,2.20
2022-09-26T14:58:37.289Z,2.00
2022-09-26T15:01:40.047Z,2.50
2022-09-26T15:04:46.271Z,1.90
2022-09-26T15:07:55.741Z,2.33
2022-09-26T15:11:00.290Z,2.15
2022-09-26T15:14:13.796Z,2.30
2022-09-26T15:17:25.752Z,2.00
2022-09-26T15:20:32.117Z,2.55
2022-09-26T15:23:46.663Z,16.50
2022-09-26T15:26:49.530Z,3.45
2022-09-26T15:29:57.942Z,2.30
2022-09-26T15:33:04.749Z,2.25
2022-09-26T15:36:07.124Z,2.38
2022-09-26T15:39:31.487Z,2.47
2022-09-26T15:42:52.462Z,2.40
2022-09-26T15:45:58.351Z,2.70
2022-09-26T15:49:01.170Z,3.65
2022-09-26T15:52:04.877Z,3.65
2022-09-26T15:55:10.898Z,5.20
2022-09-26T15:58:18.470Z,16.45
2022-09-26T16:01:25.767Z,4.13
2022-09-26T16:04:30.239Z,5.60
2022-09-26T16:07:32.913Z,5.50
2022-09-26T16:10:35.397Z,7.50
2022-09-26T16:13:42.825Z,6.18
2022-09-26T16:16:45.274Z,6.70
2022-09-26T16:19:54.194Z,6.03
2022-09-26T16:23:03.338Z,6.07
2022-09-26T16:26:21.597Z,4.45
2022-09-26T16:29:35.587Z,4.43
2022-09-26T16:32:38.230Z,6.40
2022-09-26T16:35:46.579Z,4.78
2022-09-26T16:38:57.844Z,5.22
2022-09-26T16:42:05.842Z,5.10
2022-09-26T16:45:14.799Z,5.00
2022-09-26T16:48:36.839Z,5.63
2022-09-26T16:51:39.894Z,6.50
2022-09-26T16:54:42.667Z,7.82
2022-09-26T16:57:56.848Z,7.10
2022-09-26T17:01:17.756Z,7.22
2022-09-26T17:04:31.962Z,7.20
2022-09-26T17:07:34.331Z,8.02
2022-09-26T17:10:37.751Z,9.60
2022-09-26T17:13:40.892Z,10.60
2022-09-26T17:16:46.936Z,10.48
2022-09-26T17:19:55.536Z,10.13
2022-09-26T17:23:16.902Z,10.63
2022-09-26T17:26:24.338Z,12.38
2022-09-26T17:29:33.320Z,13.75
2022-09-26T17:32:38.187Z,15.45
2022-09-26T17:35:41.875Z,14.17
2022-09-26T17:38:44.476Z,23.90
2022-09-26T17:41:48.199Z,25.13
2022-09-26T17:44:51.088Z,28.42
2022-09-26T17:47:59.301Z,14.02
2022-09-26T17:51:04.188Z,10.37
2022-09-26T17:54:07.490Z,14.23
2022-09-26T17:57:14.174Z,12.60
2022-09-26T18:00:18.000Z,12.05
2022-09-26T18:03:24.150Z,15.25
2022-09-26T18:06:31.363Z,14.20
2022-09-26T18:09:35.331Z,17.35
2022-09-26T18:12:37.880Z,21.02
2022-09-26T18:15:41.332Z,20.77
2022-09-26T18:18:44.172Z,20.08
2022-09-26T18:21:50.460Z,18.43
2022-09-26T18:25:05.248Z,14.52
2022-09-26T18:28:13.042Z,14.70
2022-09-26T18:31:15.552Z,13.65
2022-09-26T18:34:20.287Z,13.70
2022-09-26T18:37:22.648Z,13.33
2022-09-26T18:40:27.730Z,14.52
2022-09-26T18:43:31.617Z,17.13
2022-09-26T18:46:34.401Z,18.92
2022-09-26T18:49:37.793Z,19.60
2022-09-26T18:52:40.194Z,18.80
2022-09-26T18:56:01.099Z,22.40
2022-09-26T18:59:04.020Z,24.65
2022-09-26T19:02:21.439Z,26.77
2022-09-26T19:05:25.229Z,26.20
2022-09-26T19:08:35.201Z,26.47
2022-09-26T19:11:38.000Z,25.42
2022-09-26T19:14:40.582Z,23.77
2022-09-26T19:17:43.477Z,20.70
2022-09-26T19:20:45.945Z,18.60
2022-09-26T19:23:49.616Z,17.53
2022-09-26T19:26:56.755Z,16.85
2022-09-26T19:30:17.312Z,17.38
2022-09-26T19:33:19.943Z,13.50
2022-09-26T19:36:22.505Z,15.10
2022-09-26T19:39:26.325Z,12.77
2022-09-26T19:42:28.697Z,13.65
2022-09-26T19:45:34.318Z,12.35
2022-09-26T19:48:39.005Z,11.18
2022-09-26T19:51:41.575Z,11.10
2022-09-26T19:54:45.242Z,11.10
2022-09-26T19:57:47.721Z,12.00
2022-09-26T20:00:56.114Z,13.60
2022-09-26T20:03:58.923Z,12.88
2022-09-26T20:07:01.511Z,14.05
2022-09-26T20:10:15.772Z,14.53
2022-09-26T20:13:18.735Z,15.00
2022-09-26T20:16:21.489Z,15.65
2022-09-26T20:19:34.451Z,15.55
2022-09-26T20:22:39.999Z,15.20
2022-09-26T20:25:42.451Z,14.73
2022-09-26T20:28:45.512Z,16.05
2022-09-26T20:31:48.001Z,16.80
2022-09-26T20:34:50.411Z,17.35
2022-09-26T20:37:58.818Z,16.85
2022-09-26T20:41:09.309Z,14.97
2022-09-26T20:44:28.526Z,16.85
2022-09-26T20:47:31.434Z,15.52
2022-09-26T20:50:37.376Z,16.38
2022-09-26T20:53:39.772Z,19.33
2022-09-26T20:56:42.320Z,18.93
2022-09-26T20:59:44.731Z,18.15
2022-09-26T21:02:51.584Z,17.77
2022-09-26T21:05:54.108Z,19.05
2022-09-26T21:08:57.296Z,19.98
2022-09-26T21:12:01.345Z,20.83
2022-09-26T21:15:04.002Z,21.90
2022-09-26T21:18:06.439Z,25.05
2022-09-26T21:21:42.345Z,27.08
2022-09-26T21:25:05.456Z,25.10
2022-09-26T21:28:28.183Z,22.80
2022-09-26T21:31:33.116Z,22.95
2022-09-26T21:34:36.739Z,24.27
2022-09-26T21:37:39.866Z,24.67
2022-09-26T21:40:43.991Z,25.90
2022-09-26T21:43:51.701Z,24.30
2022-09-26T21:46:54.080Z,20.33
2022-09-26T21:49:58.073Z,19.30
2022-09-26T21:53:05.713Z,19.83
2022-09-26T21:56:17.071Z,18.63
2022-09-26T21:59:22.424Z,16.00
2022-09-26T22:02:25.793Z,13.43
2022-09-26T22:05:29.006Z,13.38
2022-09-26T22:08:31.662Z,10.40
2022-09-26T22:11:36.222Z,10.95
2022-09-26T22:14:38.650Z,11.57
2022-09-26T22:17:41.120Z,11.00
2022-09-26T22:20:43.606Z,12.70
2022-09-26T22:23:49.481Z,14.18
2022-09-26T22:26:51.853Z,13.15
2022-09-26T22:29:54.694Z,14.03
2022-09-26T22:32:57.185Z,9.80
2022-09-26T22:36:00.003Z,10.50
2022-09-26T22:39:02.597Z,9.60
2022-09-26T22:42:05.287Z,11.65
2022-09-26T22:45:08.197Z,11.33
2022-09-26T22:48:10.603Z,14.20
2022-09-26T22:51:16.042Z,14.75
2022-09-26T22:54:18.518Z,15.93
2022-09-26T22:57:20.957Z,15.20
2022-09-26T23:00:23.341Z,17.00
2022-09-26T23:03:25.698Z,19.90
2022-09-26T23:06:28.519Z,16.08
2022-09-26T23:09:30.872Z,16.50
2022-09-26T23:12:33.327Z,15.23
2022-09-26T23:15:35.716Z,12.33
2022-09-26T23:18:40.097Z,16.90
2022-09-26T23:21:42.588Z,20.23
2022-09-26T23:24:45.012Z,21.98
2022-09-26T23:27:47.535Z,19.52
2022-09-26T23:30:50.663Z,17.70
2022-09-26T23:33:54.009Z,18.42
2022-09-26T23:36:56.437Z,18.52
2022-09-26T23:39:58.866Z,16.90
2022-09-26T23:43:02.329Z,16.88
2022-09-26T23:46:05.546Z,13.43
2022-09-26T23:49:08.113Z,11.50
2022-09-26T23:52:10.691Z,13.18
2022-09-26T23:55:13.972Z,13.88
2022-09-26T23:58:16.715Z,11.80
